sensor_id;sensor_type;location;lat;lon;timestamp;P1;durP1;ratioP1;P2;durP2;ratioP2
24650;SDS011;12783;48.824;8.662;2022-08-19T00:01:27;22.80;;;16.20;;
24650;SDS011;12783;48.824;8.662;2022-08-19T00:03:57;23.35;;;16.05;;
24650;SDS011;12783;48.824;8.662;2022-08-19T00:06:25;22.30;;;15.20;;
24650;SDS011;12783;48.824;8.662;2022-08-19T00:08:53;30.48;;;16.00;;
24650;SDS011;12783;48.824;8.662;2022-08-19T00:11:20;24.60;;;17.02;;
24650;SDS011;12783;48.824;8.662;2022-08-19T00:13:51;24.95;;;16.58;;
24650;SDS011;12783;48.824;8.662;2022-08-19T00:16:18;24.52;;;16.10;;
24650;SDS011;12783;48.824;8.662;2022-08-19T00:18:55;23.90;;;16.45;;
24650;SDS011;12783;48.824;8.662;2022-08-19T00:21:22;24.55;;;17.02;;
24650;SDS011;12783;48.824;8.662;2022-08-19T00:23:50;27.52;;;18.40;;
24650;SDS011;12783;48.824;8.662;2022-08-19T00:26:18;29.42;;;17.02;;
24650;SDS011;12783;48.824;8.662;2022-08-19T00:28:45;24.48;;;16.45;;
24650;SDS011;12783;48.824;8.662;2022-08-19T00:31:13;22.80;;;14.60;;
24650;SDS011;12783;48.824;8.662;2022-08-19T00:33:40;24.88;;;17.33;;
24650;SDS011;12783;48.824;8.662;2022-08-19T00:36:07;30.73;;;18.30;;
24650;SDS011;12783;48.824;8.662;2022-08-19T00:38:35;24.08;;;17.52;;
24650;SDS011;12783;48.824;8.662;2022-08-19T00:41:06;28.08;;;18.13;;
24650;SDS011;12783;48.824;8.662;2022-08-19T00:43:33;28.38;;;17.42;;
24650;SDS011;12783;48.824;8.662;2022-08-19T00:46:00;26.98;;;16.15;;
24650;SDS011;12783;48.824;8.662;2022-08-19T00:48:31;26.17;;;17.98;;
24650;SDS011;12783;48.824;8.662;2022-08-19T00:50:59;25.65;;;17.70;;
24650;SDS011;12783;48.824;8.662;2022-08-19T00:53:29;26.05;;;17.15;;
24650;SDS011;12783;48.824;8.662;2022-08-19T00:55:58;26.80;;;18.02;;
24650;SDS011;12783;48.824;8.662;2022-08-19T00:58:28;25.88;;;17.80;;
24650;SDS011;12783;48.824;8.662;2022-08-19T01:00:56;25.42;;;16.88;;
24650;SDS011;12783;48.824;8.662;2022-08-19T01:03:23;21.30;;;15.88;;
24650;SDS011;12783;48.824;8.662;2022-08-19T01:05:50;26.45;;;18.00;;
24650;SDS011;12783;48.824;8.662;2022-08-19T01:08:18;22.85;;;15.60;;
24650;SDS011;12783;48.824;8.662;2022-08-19T01:10:47;24.27;;;17.05;;
24650;SDS011;12783;48.824;8.662;2022-08-19T01:13:17;20.60;;;15.88;;
24650;SDS011;12783;48.824;8.662;2022-08-19T01:15:49;26.33;;;17.80;;
24650;SDS011;12783;48.824;8.662;2022-08-19T01:18:20;27.40;;;16.85;;
24650;SDS011;12783;48.824;8.662;2022-08-19T01:20:47;24.17;;;17.48;;
24650;SDS011;12783;48.824;8.662;2022-08-19T01:23:14;26.77;;;17.63;;
24650;SDS011;12783;48.824;8.662;2022-08-19T01:25:44;22.92;;;15.77;;
24650;SDS011;12783;48.824;8.662;2022-08-19T01:28:17;24.48;;;18.27;;
24650;SDS011;12783;48.824;8.662;2022-08-19T01:30:59;25.00;;;16.35;;
24650;SDS011;12783;48.824;8.662;2022-08-19T01:33:33;31.42;;;18.23;;
24650;SDS011;12783;48.824;8.662;2022-08-19T01:36:04;27.55;;;18.23;;
24650;SDS011;12783;48.824;8.662;2022-08-19T01:38:37;26.17;;;17.75;;
24650;SDS011;12783;48.824;8.662;2022-08-19T01:41:11;27.27;;;18.08;;
24650;SDS011;12783;48.824;8.662;2022-08-19T01:43:38;27.88;;;18.65;;
24650;SDS011;12783;48.824;8.662;2022-08-19T01:46:25;27.23;;;19.75;;
24650;SDS011;12783;48.824;8.662;2022-08-19T01:48:52;28.77;;;18.70;;
24650;SDS011;12783;48.824;8.662;2022-08-19T01:51:19;27.88;;;20.45;;
24650;SDS011;12783;48.824;8.662;2022-08-19T01:53:50;29.25;;;20.17;;
24650;SDS011;12783;48.824;8.662;2022-08-19T01:56:18;30.58;;;19.35;;
24650;SDS011;12783;48.824;8.662;2022-08-19T01:58:47;25.48;;;18.35;;
24650;SDS011;12783;48.824;8.662;2022-08-19T02:01:20;25.55;;;17.83;;
24650;SDS011;12783;48.824;8.662;2022-08-19T02:03:47;26.10;;;17.33;;
24650;SDS011;12783;48.824;8.662;2022-08-19T02:06:14;28.38;;;19.75;;
24650;SDS011;12783;48.824;8.662;2022-08-19T02:08:43;30.55;;;20.02;;
24650;SDS011;12783;48.824;8.662;2022-08-19T02:11:20;28.65;;;20.02;;
24650;SDS011;12783;48.824;8.662;2022-08-19T02:13:53;30.60;;;20.75;;
24650;SDS011;12783;48.824;8.662;2022-08-19T02:16:21;28.25;;;20.25;;
24650;SDS011;12783;48.824;8.662;2022-08-19T02:18:48;28.02;;;19.70;;
24650;SDS011;12783;48.824;8.662;2022-08-19T02:21:15;36.92;;;21.98;;
24650;SDS011;12783;48.824;8.662;2022-08-19T02:23:44;32.50;;;22.75;;
24650;SDS011;12783;48.824;8.662;2022-08-19T02:26:11;32.80;;;22.02;;
24650;SDS011;12783;48.824;8.662;2022-08-19T02:28:39;29.77;;;22.13;;
24650;SDS011;12783;48.824;8.662;2022-08-19T02:31:14;31.50;;;22.77;;
24650;SDS011;12783;48.824;8.662;2022-08-19T02:33:44;31.88;;;20.60;;
24650;SDS011;12783;48.824;8.662;2022-08-19T02:36:12;30.95;;;22.10;;
24650;SDS011;12783;48.824;8.662;2022-08-19T02:38:41;32.22;;;21.88;;
24650;SDS011;12783;48.824;8.662;2022-08-19T02:41:15;41.30;;;24.27;;
24650;SDS011;12783;48.824;8.662;2022-08-19T02:43:52;32.17;;;22.88;;
24650;SDS011;12783;48.824;8.662;2022-08-19T02:46:40;33.72;;;22.48;;
24650;SDS011;12783;48.824;8.662;2022-08-19T02:49:07;30.98;;;22.67;;
24650;SDS011;12783;48.824;8.662;2022-08-19T02:51:35;36.63;;;22.88;;
24650;SDS011;12783;48.824;8.662;2022-08-19T02:54:08;31.33;;;22.87;;
24650;SDS011;12783;48.824;8.662;2022-08-19T02:56:36;36.58;;;23.13;;
24650;SDS011;12783;48.824;8.662;2022-08-19T02:59:04;32.65;;;23.48;;
24650;SDS011;12783;48.824;8.662;2022-08-19T03:01:36;36.67;;;24.23;;
24650;SDS011;12783;48.824;8.662;2022-08-19T03:04:04;38.10;;;24.80;;
24650;SDS011;12783;48.824;8.662;2022-08-19T03:06:32;36.53;;;24.17;;
24650;SDS011;12783;48.824;8.662;2022-08-19T03:09:02;36.75;;;23.92;;
24650;SDS011;12783;48.824;8.662;2022-08-19T03:11:30;34.03;;;21.95;;
24650;SDS011;12783;48.824;8.662;2022-08-19T03:13:58;37.20;;;23.58;;
24650;SDS011;12783;48.824;8.662;2022-08-19T03:16:27;34.25;;;22.05;;
24650;SDS011;12783;48.824;8.662;2022-08-19T03:18:58;34.40;;;24.05;;
24650;SDS011;12783;48.824;8.662;2022-08-19T03:21:27;35.85;;;23.77;;
24650;SDS011;12783;48.824;8.662;2022-08-19T03:23:56;40.25;;;24.25;;
24650;SDS011;12783;48.824;8.662;2022-08-19T03:26:24;32.88;;;22.73;;
24650;SDS011;12783;48.824;8.662;2022-08-19T03:28:51;37.45;;;23.75;;
24650;SDS011;12783;48.824;8.662;2022-08-19T03:31:24;32.72;;;22.98;;
24650;SDS011;12783;48.824;8.662;2022-08-19T03:34:13;32.67;;;22.50;;
24650;SDS011;12783;48.824;8.662;2022-08-19T03:36:41;38.13;;;24.17;;
24650;SDS011;12783;48.824;8.662;2022-08-19T03:39:09;39.10;;;23.60;;
24650;SDS011;12783;48.824;8.662;2022-08-19T03:41:37;32.30;;;22.65;;
24650;SDS011;12783;48.824;8.662;2022-08-19T03:44:13;33.25;;;24.42;;
24650;SDS011;12783;48.824;8.662;2022-08-19T03:46:44;37.53;;;25.15;;
24650;SDS011;12783;48.824;8.662;2022-08-19T03:49:12;34.00;;;23.58;;
24650;SDS011;12783;48.824;8.662;2022-08-19T03:51:40;46.17;;;25.23;;
24650;SDS011;12783;48.824;8.662;2022-08-19T03:54:09;33.70;;;22.45;;
24650;SDS011;12783;48.824;8.662;2022-08-19T03:56:39;36.75;;;24.65;;
24650;SDS011;12783;48.824;8.662;2022-08-19T03:59:07;38.40;;;25.80;;
24650;SDS011;12783;48.824;8.662;2022-08-19T04:01:35;47.33;;;26.55;;
24650;SDS011;12783;48.824;8.662;2022-08-19T04:04:02;37.58;;;24.63;;
24650;SDS011;12783;48.824;8.662;2022-08-19T04:06:34;30.73;;;22.52;;
24650;SDS011;12783;48.824;8.662;2022-08-19T04:09:06;42.55;;;26.98;;
24650;SDS011;12783;48.824;8.662;2022-08-19T04:11:42;41.15;;;25.70;;
24650;SDS011;12783;48.824;8.662;2022-08-19T04:14:21;43.42;;;28.52;;
24650;SDS011;12783;48.824;8.662;2022-08-19T04:16:50;39.67;;;27.00;;
24650;SDS011;12783;48.824;8.662;2022-08-19T04:19:19;39.30;;;25.85;;
24650;SDS011;12783;48.824;8.662;2022-08-19T04:21:47;39.22;;;25.83;;
24650;SDS011;12783;48.824;8.662;2022-08-19T04:24:16;39.90;;;26.83;;
24650;SDS011;12783;48.824;8.662;2022-08-19T04:26:44;43.50;;;27.45;;
24650;SDS011;12783;48.824;8.662;2022-08-19T04:29:13;37.53;;;24.73;;
24650;SDS011;12783;48.824;8.662;2022-08-19T04:31:42;38.50;;;25.83;;
24650;SDS011;12783;48.824;8.662;2022-08-19T04:34:11;41.78;;;27.73;;
24650;SDS011;12783;48.824;8.662;2022-08-19T04:36:40;47.22;;;28.08;;
24650;SDS011;12783;48.824;8.662;2022-08-19T04:39:10;38.10;;;26.30;;
24650;SDS011;12783;48.824;8.662;2022-08-19T04:41:39;35.03;;;24.58;;
24650;SDS011;12783;48.824;8.662;2022-08-19T04:44:24;40.15;;;25.35;;
24650;SDS011;12783;48.824;8.662;2022-08-19T04:46:51;40.92;;;26.85;;
24650;SDS011;12783;48.824;8.662;2022-08-19T04:49:19;42.70;;;27.55;;
24650;SDS011;12783;48.824;8.662;2022-08-19T04:51:49;40.42;;;26.02;;
24650;SDS011;12783;48.824;8.662;2022-08-19T04:54:17;43.90;;;27.80;;
24650;SDS011;12783;48.824;8.662;2022-08-19T04:57:04;40.90;;;28.70;;
24650;SDS011;12783;48.824;8.662;2022-08-19T04:59:36;38.15;;;27.00;;
24650;SDS011;12783;48.824;8.662;2022-08-19T05:02:04;40.83;;;25.42;;
24650;SDS011;12783;48.824;8.662;2022-08-19T05:04:31;41.80;;;26.75;;
24650;SDS011;12783;48.824;8.662;2022-08-19T05:06:59;42.88;;;26.90;;
24650;SDS011;12783;48.824;8.662;2022-08-19T05:09:28;39.13;;;26.90;;
24650;SDS011;12783;48.824;8.662;2022-08-19T05:12:15;38.85;;;26.45;;
24650;SDS011;12783;48.824;8.662;2022-08-19T05:14:42;45.72;;;27.52;;
24650;SDS011;12783;48.824;8.662;2022-08-19T05:17:11;42.78;;;28.23;;
24650;SDS011;12783;48.824;8.662;2022-08-19T05:19:53;38.25;;;25.92;;
24650;SDS011;12783;48.824;8.662;2022-08-19T05:22:40;41.75;;;26.00;;
24650;SDS011;12783;48.824;8.662;2022-08-19T05:25:08;48.53;;;27.85;;
24650;SDS011;12783;48.824;8.662;2022-08-19T05:27:40;43.92;;;27.60;;
24650;SDS011;12783;48.824;8.662;2022-08-19T05:30:08;40.67;;;27.85;;
24650;SDS011;12783;48.824;8.662;2022-08-19T05:32:35;38.70;;;26.60;;
24650;SDS011;12783;48.824;8.662;2022-08-19T05:35:02;42.35;;;28.65;;
24650;SDS011;12783;48.824;8.662;2022-08-19T05:37:30;41.47;;;26.95;;
24650;SDS011;12783;48.824;8.662;2022-08-19T05:39:57;39.33;;;27.20;;
24650;SDS011;12783;48.824;8.662;2022-08-19T05:42:24;44.05;;;27.40;;
24650;SDS011;12783;48.824;8.662;2022-08-19T05:44:52;43.22;;;28.10;;
24650;SDS011;12783;48.824;8.662;2022-08-19T05:47:19;37.28;;;23.67;;
24650;SDS011;12783;48.824;8.662;2022-08-19T05:49:47;38.05;;;25.27;;
24650;SDS011;12783;48.824;8.662;2022-08-19T05:52:16;40.38;;;26.27;;
24650;SDS011;12783;48.824;8.662;2022-08-19T05:54:44;39.33;;;25.08;;
24650;SDS011;12783;48.824;8.662;2022-08-19T05:57:17;41.70;;;26.13;;
24650;SDS011;12783;48.824;8.662;2022-08-19T05:59:44;37.05;;;23.67;;
24650;SDS011;12783;48.824;8.662;2022-08-19T06:02:24;35.53;;;24.02;;
24650;SDS011;12783;48.824;8.662;2022-08-19T06:04:54;38.60;;;26.25;;
24650;SDS011;12783;48.824;8.662;2022-08-19T06:07:21;36.13;;;25.48;;
24650;SDS011;12783;48.824;8.662;2022-08-19T06:09:48;42.10;;;24.70;;
24650;SDS011;12783;48.824;8.662;2022-08-19T06:12:29;37.90;;;25.27;;
24650;SDS011;12783;48.824;8.662;2022-08-19T06:17:29;37.88;;;24.88;;
24650;SDS011;12783;48.824;8.662;2022-08-19T06:19:57;34.95;;;22.67;;
24650;SDS011;12783;48.824;8.662;2022-08-19T06:22:25;38.20;;;25.08;;
24650;SDS011;12783;48.824;8.662;2022-08-19T06:24:53;44.03;;;31.27;;
24650;SDS011;12783;48.824;8.662;2022-08-19T06:27:21;61.53;;;46.60;;
24650;SDS011;12783;48.824;8.662;2022-08-19T06:29:48;49.20;;;34.58;;
24650;SDS011;12783;48.824;8.662;2022-08-19T06:32:16;71.55;;;55.60;;
24650;SDS011;12783;48.824;8.662;2022-08-19T06:34:44;45.75;;;34.05;;
24650;SDS011;12783;48.824;8.662;2022-08-19T06:37:11;39.70;;;27.33;;
24650;SDS011;12783;48.824;8.662;2022-08-19T06:39:40;35.22;;;25.27;;
24650;SDS011;12783;48.824;8.662;2022-08-19T06:42:08;32.95;;;23.63;;
24650;SDS011;12783;48.824;8.662;2022-08-19T06:44:38;34.67;;;24.35;;
24650;SDS011;12783;48.824;8.662;2022-08-19T06:47:09;33.35;;;23.13;;
24650;SDS011;12783;48.824;8.662;2022-08-19T06:49:49;32.50;;;23.00;;
24650;SDS011;12783;48.824;8.662;2022-08-19T06:52:16;32.58;;;22.90;;
24650;SDS011;12783;48.824;8.662;2022-08-19T06:54:43;31.42;;;22.73;;
24650;SDS011;12783;48.824;8.662;2022-08-19T06:57:22;35.60;;;23.00;;
24650;SDS011;12783;48.824;8.662;2022-08-19T06:59:50;31.33;;;23.67;;
24650;SDS011;12783;48.824;8.662;2022-08-19T07:02:17;30.58;;;23.10;;
24650;SDS011;12783;48.824;8.662;2022-08-19T07:04:45;31.23;;;23.67;;
24650;SDS011;12783;48.824;8.662;2022-08-19T07:07:13;33.63;;;23.63;;
24650;SDS011;12783;48.824;8.662;2022-08-19T07:09:46;34.40;;;24.10;;
24650;SDS011;12783;48.824;8.662;2022-08-19T07:12:29;33.20;;;22.52;;
24650;SDS011;12783;48.824;8.662;2022-08-19T07:15:04;28.58;;;20.40;;
24650;SDS011;12783;48.824;8.662;2022-08-19T07:17:31;31.42;;;21.35;;
24650;SDS011;12783;48.824;8.662;2022-08-19T07:20:00;32.67;;;21.50;;
24650;SDS011;12783;48.824;8.662;2022-08-19T07:22:33;28.25;;;21.17;;
24650;SDS011;12783;48.824;8.662;2022-08-19T07:25:00;29.33;;;20.58;;
24650;SDS011;12783;48.824;8.662;2022-08-19T07:27:29;29.25;;;21.35;;
24650;SDS011;12783;48.824;8.662;2022-08-19T07:29:59;33.72;;;21.70;;
24650;SDS011;12783;48.824;8.662;2022-08-19T07:32:26;30.05;;;22.50;;
24650;SDS011;12783;48.824;8.662;2022-08-19T07:34:53;31.60;;;22.02;;
24650;SDS011;12783;48.824;8.662;2022-08-19T07:37:22;29.25;;;20.15;;
24650;SDS011;12783;48.824;8.662;2022-08-19T07:39:58;86.22;;;50.88;;
24650;SDS011;12783;48.824;8.662;2022-08-19T07:42:25;275.00;;;173.82;;
24650;SDS011;12783;48.824;8.662;2022-08-19T07:44:52;85.93;;;59.90;;
24650;SDS011;12783;48.824;8.662;2022-08-19T07:47:19;29.35;;;20.10;;
24650;SDS011;12783;48.824;8.662;2022-08-19T07:50:07;40.40;;;27.38;;
24650;SDS011;12783;48.824;8.662;2022-08-19T07:52:35;34.78;;;24.75;;
24650;SDS011;12783;48.824;8.662;2022-08-19T07:55:09;32.22;;;22.52;;
24650;SDS011;12783;48.824;8.662;2022-08-19T07:57:57;31.35;;;22.98;;
24650;SDS011;12783;48.824;8.662;2022-08-19T08:00:24;37.58;;;26.88;;
24650;SDS011;12783;48.824;8.662;2022-08-19T08:02:51;32.08;;;24.48;;
24650;SDS011;12783;48.824;8.662;2022-08-19T08:05:20;32.50;;;22.77;;
24650;SDS011;12783;48.824;8.662;2022-08-19T08:08:09;27.63;;;20.50;;
24650;SDS011;12783;48.824;8.662;2022-08-19T08:10:53;29.83;;;22.20;;
24650;SDS011;12783;48.824;8.662;2022-08-19T08:13:22;42.35;;;28.33;;
24650;SDS011;12783;48.824;8.662;2022-08-19T08:15:50;38.55;;;26.77;;
24650;SDS011;12783;48.824;8.662;2022-08-19T08:18:20;34.95;;;24.73;;
24650;SDS011;12783;48.824;8.662;2022-08-19T08:20:53;35.83;;;23.95;;
24650;SDS011;12783;48.824;8.662;2022-08-19T08:23:20;28.02;;;20.40;;
24650;SDS011;12783;48.824;8.662;2022-08-19T08:25:52;33.20;;;22.92;;
24650;SDS011;12783;48.824;8.662;2022-08-19T08:28:21;33.63;;;22.30;;
24650;SDS011;12783;48.824;8.662;2022-08-19T08:30:49;26.48;;;18.63;;
24650;SDS011;12783;48.824;8.662;2022-08-19T08:33:21;25.23;;;17.30;;
24650;SDS011;12783;48.824;8.662;2022-08-19T08:36:01;27.08;;;17.05;;
24650;SDS011;12783;48.824;8.662;2022-08-19T08:38:30;28.60;;;18.67;;
24650;SDS011;12783;48.824;8.662;2022-08-19T08:43:57;23.05;;;17.15;;
24650;SDS011;12783;48.824;8.662;2022-08-19T08:49:34;23.33;;;17.38;;
24650;SDS011;12783;48.824;8.662;2022-08-19T08:52:24;26.92;;;17.23;;
24650;SDS011;12783;48.824;8.662;2022-08-19T08:54:58;24.10;;;16.20;;
24650;SDS011;12783;48.824;8.662;2022-08-19T08:57:28;20.23;;;14.90;;
24650;SDS011;12783;48.824;8.662;2022-08-19T09:00:08;18.60;;;15.40;;
24650;SDS011;12783;48.824;8.662;2022-08-19T09:02:56;26.27;;;15.25;;
24650;SDS011;12783;48.824;8.662;2022-08-19T09:05:27;21.08;;;16.00;;
24650;SDS011;12783;48.824;8.662;2022-08-19T09:11:11;22.38;;;15.30;;
24650;SDS011;12783;48.824;8.662;2022-08-19T09:14:08;23.05;;;14.75;;
24650;SDS011;12783;48.824;8.662;2022-08-19T09:17:16;21.95;;;16.60;;
24650;SDS011;12783;48.824;8.662;2022-08-19T09:22:18;23.10;;;16.55;;
24650;SDS011;12783;48.824;8.662;2022-08-19T09:24:51;20.02;;;15.23;;
24650;SDS011;12783;48.824;8.662;2022-08-19T09:27:19;23.00;;;17.13;;
24650;SDS011;12783;48.824;8.662;2022-08-19T09:30:08;25.00;;;16.42;;
24650;SDS011;12783;48.824;8.662;2022-08-19T09:32:41;19.25;;;14.00;;
24650;SDS011;12783;48.824;8.662;2022-08-19T09:35:12;22.15;;;14.30;;
24650;SDS011;12783;48.824;8.662;2022-08-19T09:37:43;21.35;;;15.73;;
24650;SDS011;12783;48.824;8.662;2022-08-19T09:40:10;27.42;;;15.27;;
24650;SDS011;12783;48.824;8.662;2022-08-19T09:42:38;20.25;;;14.38;;
24650;SDS011;12783;48.824;8.662;2022-08-19T09:45:19;22.00;;;13.85;;
24650;SDS011;12783;48.824;8.662;2022-08-19T09:47:48;19.77;;;14.05;;
24650;SDS011;12783;48.824;8.662;2022-08-19T09:50:19;20.67;;;13.45;;
24650;SDS011;12783;48.824;8.662;2022-08-19T09:52:47;16.17;;;12.40;;
24650;SDS011;12783;48.824;8.662;2022-08-19T09:55:23;17.05;;;12.18;;
24650;SDS011;12783;48.824;8.662;2022-08-19T09:57:58;16.95;;;11.13;;
24650;SDS011;12783;48.824;8.662;2022-08-19T10:00:26;12.70;;;10.82;;
24650;SDS011;12783;48.824;8.662;2022-08-19T10:02:53;14.18;;;9.85;;
24650;SDS011;12783;48.824;8.662;2022-08-19T10:05:20;14.15;;;10.23;;
24650;SDS011;12783;48.824;8.662;2022-08-19T10:08:11;11.48;;;7.93;;
24650;SDS011;12783;48.824;8.662;2022-08-19T10:10:42;13.00;;;9.63;;
24650;SDS011;12783;48.824;8.662;2022-08-19T10:13:13;11.35;;;8.95;;
24650;SDS011;12783;48.824;8.662;2022-08-19T10:15:41;13.70;;;8.60;;
24650;SDS011;12783;48.824;8.662;2022-08-19T10:18:13;11.80;;;7.72;;
24650;SDS011;12783;48.824;8.662;2022-08-19T10:20:43;9.05;;;7.88;;
24650;SDS011;12783;48.824;8.662;2022-08-19T10:23:17;10.30;;;7.38;;
24650;SDS011;12783;48.824;8.662;2022-08-19T10:25:46;9.82;;;7.72;;
24650;SDS011;12783;48.824;8.662;2022-08-19T10:28:13;11.95;;;7.13;;
24650;SDS011;12783;48.824;8.662;2022-08-19T10:33:24;11.77;;;8.27;;
24650;SDS011;12783;48.824;8.662;2022-08-19T10:36:16;14.05;;;9.27;;
24650;SDS011;12783;48.824;8.662;2022-08-19T10:38:46;14.45;;;9.25;;
24650;SDS011;12783;48.824;8.662;2022-08-19T10:41:23;11.93;;;9.48;;
24650;SDS011;12783;48.824;8.662;2022-08-19T10:43:56;11.65;;;8.98;;
24650;SDS011;12783;48.824;8.662;2022-08-19T10:46:30;15.15;;;9.05;;
24650;SDS011;12783;48.824;8.662;2022-08-19T10:49:01;15.60;;;9.38;;
24650;SDS011;12783;48.824;8.662;2022-08-19T10:51:29;14.77;;;10.57;;
24650;SDS011;12783;48.824;8.662;2022-08-19T10:54:14;12.07;;;8.88;;
24650;SDS011;12783;48.824;8.662;2022-08-19T10:56:42;10.95;;;7.80;;
24650;SDS011;12783;48.824;8.662;2022-08-19T10:59:22;14.13;;;7.80;;
24650;SDS011;12783;48.824;8.662;2022-08-19T11:02:05;11.77;;;7.95;;
24650;SDS011;12783;48.824;8.662;2022-08-19T11:04:36;13.75;;;8.20;;
24650;SDS011;12783;48.824;8.662;2022-08-19T11:07:04;9.50;;;7.90;;
24650;SDS011;12783;48.824;8.662;2022-08-19T11:09:36;13.10;;;8.05;;
24650;SDS011;12783;48.824;8.662;2022-08-19T11:12:07;9.90;;;7.55;;
24650;SDS011;12783;48.824;8.662;2022-08-19T11:14:36;13.02;;;8.68;;
24650;SDS011;12783;48.824;8.662;2022-08-19T11:17:04;10.73;;;8.52;;
24650;SDS011;12783;48.824;8.662;2022-08-19T11:19:32;11.60;;;7.60;;
24650;SDS011;12783;48.824;8.662;2022-08-19T11:22:00;12.43;;;8.70;;
24650;SDS011;12783;48.824;8.662;2022-08-19T11:24:30;11.13;;;8.35;;
24650;SDS011;12783;48.824;8.662;2022-08-19T11:27:00;12.10;;;7.70;;
24650;SDS011;12783;48.824;8.662;2022-08-19T11:29:36;7.68;;;6.22;;
24650;SDS011;12783;48.824;8.662;2022-08-19T11:32:08;10.80;;;6.85;;
24650;SDS011;12783;48.824;8.662;2022-08-19T11:34:36;12.38;;;7.05;;
24650;SDS011;12783;48.824;8.662;2022-08-19T11:37:03;18.55;;;7.35;;
24650;SDS011;12783;48.824;8.662;2022-08-19T11:39:31;7.70;;;6.20;;
24650;SDS011;12783;48.824;8.662;2022-08-19T11:41:58;7.88;;;5.75;;
24650;SDS011;12783;48.824;8.662;2022-08-19T11:44:27;7.97;;;6.25;;
24650;SDS011;12783;48.824;8.662;2022-08-19T11:46:56;10.45;;;6.57;;
24650;SDS011;12783;48.824;8.662;2022-08-19T11:49:34;9.07;;;6.55;;
24650;SDS011;12783;48.824;8.662;2022-08-19T11:52:02;8.10;;;6.22;;
24650;SDS011;12783;48.824;8.662;2022-08-19T11:54:29;11.18;;;8.48;;
24650;SDS011;12783;48.824;8.662;2022-08-19T11:56:57;8.75;;;6.80;;
24650;SDS011;12783;48.824;8.662;2022-08-19T11:59:23;15.40;;;8.02;;
24650;SDS011;12783;48.824;8.662;2022-08-19T12:01:52;10.52;;;6.93;;
24650;SDS011;12783;48.824;8.662;2022-08-19T12:04:19;15.82;;;7.20;;
24650;SDS011;12783;48.824;8.662;2022-08-19T12:06:46;12.25;;;7.82;;
24650;SDS011;12783;48.824;8.662;2022-08-19T12:09:13;14.85;;;7.78;;
24650;SDS011;12783;48.824;8.662;2022-08-19T12:11:41;8.32;;;6.90;;
24650;SDS011;12783;48.824;8.662;2022-08-19T12:14:09;8.63;;;7.28;;
24650;SDS011;12783;48.824;8.662;2022-08-19T12:16:40;9.90;;;6.20;;
24650;SDS011;12783;48.824;8.662;2022-08-19T12:19:17;8.73;;;7.70;;
24650;SDS011;12783;48.824;8.662;2022-08-19T12:21:52;9.98;;;7.82;;
24650;SDS011;12783;48.824;8.662;2022-08-19T12:24:21;9.13;;;7.50;;
24650;SDS011;12783;48.824;8.662;2022-08-19T12:26:50;11.30;;;7.82;;
24650;SDS011;12783;48.824;8.662;2022-08-19T12:29:18;9.38;;;7.63;;
24650;SDS011;12783;48.824;8.662;2022-08-19T12:31:49;12.70;;;6.35;;
24650;SDS011;12783;48.824;8.662;2022-08-19T12:34:16;9.75;;;6.55;;
24650;SDS011;12783;48.824;8.662;2022-08-19T12:36:43;10.70;;;7.30;;
24650;SDS011;12783;48.824;8.662;2022-08-19T12:39:10;10.10;;;8.18;;
24650;SDS011;12783;48.824;8.662;2022-08-19T12:41:38;9.68;;;8.20;;
24650;SDS011;12783;48.824;8.662;2022-08-19T12:44:19;13.05;;;7.95;;
24650;SDS011;12783;48.824;8.662;2022-08-19T12:46:55;14.48;;;8.20;;
24650;SDS011;12783;48.824;8.662;2022-08-19T12:49:22;10.07;;;8.43;;
24650;SDS011;12783;48.824;8.662;2022-08-19T12:52:11;12.15;;;8.15;;
24650;SDS011;12783;48.824;8.662;2022-08-19T12:54:50;9.55;;;7.80;;
24650;SDS011;12783;48.824;8.662;2022-08-19T12:57:24;10.27;;;7.57;;
24650;SDS011;12783;48.824;8.662;2022-08-19T12:59:59;10.77;;;7.95;;
24650;SDS011;12783;48.824;8.662;2022-08-19T13:02:29;13.50;;;8.32;;
24650;SDS011;12783;48.824;8.662;2022-08-19T13:05:05;9.07;;;7.20;;
24650;SDS011;12783;48.824;8.662;2022-08-19T13:07:35;7.90;;;7.07;;
24650;SDS011;12783;48.824;8.662;2022-08-19T13:10:06;11.45;;;8.13;;
24650;SDS011;12783;48.824;8.662;2022-08-19T13:12:34;11.18;;;7.68;;
24650;SDS011;12783;48.824;8.662;2022-08-19T13:15:02;8.38;;;6.97;;
24650;SDS011;12783;48.824;8.662;2022-08-19T13:17:37;10.35;;;7.53;;
24650;SDS011;12783;48.824;8.662;2022-08-19T13:20:05;9.57;;;6.90;;
24650;SDS011;12783;48.824;8.662;2022-08-19T13:22:34;10.65;;;7.35;;
24650;SDS011;12783;48.824;8.662;2022-08-19T13:25:03;7.70;;;6.88;;
24650;SDS011;12783;48.824;8.662;2022-08-19T13:27:31;8.68;;;6.78;;
24650;SDS011;12783;48.824;8.662;2022-08-19T13:29:59;8.02;;;7.20;;
24650;SDS011;12783;48.824;8.662;2022-08-19T13:32:45;9.52;;;7.50;;
24650;SDS011;12783;48.824;8.662;2022-08-19T13:35:33;10.95;;;8.77;;
24650;SDS011;12783;48.824;8.662;2022-08-19T13:38:00;10.48;;;8.50;;
24650;SDS011;12783;48.824;8.662;2022-08-19T13:40:37;10.63;;;9.00;;
24650;SDS011;12783;48.824;8.662;2022-08-19T13:43:07;11.88;;;8.18;;
24650;SDS011;12783;48.824;8.662;2022-08-19T13:45:48;10.25;;;8.60;;
24650;SDS011;12783;48.824;8.662;2022-08-19T13:48:16;11.10;;;8.18;;
24650;SDS011;12783;48.824;8.662;2022-08-19T13:50:44;15.45;;;8.90;;
24650;SDS011;12783;48.824;8.662;2022-08-19T13:53:13;10.55;;;8.75;;
24650;SDS011;12783;48.824;8.662;2022-08-19T13:55:41;9.75;;;7.70;;
24650;SDS011;12783;48.824;8.662;2022-08-19T13:58:10;10.75;;;8.43;;
24650;SDS011;12783;48.824;8.662;2022-08-19T14:03:26;11.65;;;7.80;;
24650;SDS011;12783;48.824;8.662;2022-08-19T14:05:54;9.10;;;7.88;;
24650;SDS011;12783;48.824;8.662;2022-08-19T14:08:21;9.85;;;7.93;;
24650;SDS011;12783;48.824;8.662;2022-08-19T14:10:49;9.00;;;7.22;;
24650;SDS011;12783;48.824;8.662;2022-08-19T14:13:18;8.98;;;7.25;;
24650;SDS011;12783;48.824;8.662;2022-08-19T14:15:50;10.93;;;6.97;;
24650;SDS011;12783;48.824;8.662;2022-08-19T14:18:18;10.18;;;6.75;;
24650;SDS011;12783;48.824;8.662;2022-08-19T14:20:45;10.00;;;8.63;;
24650;SDS011;12783;48.824;8.662;2022-08-19T14:23:12;9.40;;;7.68;;
24650;SDS011;12783;48.824;8.662;2022-08-19T14:25:39;11.50;;;7.82;;
24650;SDS011;12783;48.824;8.662;2022-08-19T14:28:08;13.57;;;10.00;;
24650;SDS011;12783;48.824;8.662;2022-08-19T14:30:36;11.73;;;7.72;;
24650;SDS011;12783;48.824;8.662;2022-08-19T14:33:04;13.98;;;8.02;;
24650;SDS011;12783;48.824;8.662;2022-08-19T14:35:33;7.82;;;6.55;;
24650;SDS011;12783;48.824;8.662;2022-08-19T14:38:04;7.72;;;6.90;;
24650;SDS011;12783;48.824;8.662;2022-08-19T14:40:31;9.70;;;7.25;;
24650;SDS011;12783;48.824;8.662;2022-08-19T14:42:59;10.80;;;6.95;;
24650;SDS011;12783;48.824;8.662;2022-08-19T14:45:31;11.15;;;6.82;;
24650;SDS011;12783;48.824;8.662;2022-08-19T14:47:59;9.98;;;6.78;;
24650;SDS011;12783;48.824;8.662;2022-08-19T14:50:27;9.07;;;6.50;;
24650;SDS011;12783;48.824;8.662;2022-08-19T14:52:58;8.98;;;6.53;;
24650;SDS011;12783;48.824;8.662;2022-08-19T14:55:40;7.63;;;5.82;;
24650;SDS011;12783;48.824;8.662;2022-08-19T14:58:08;7.63;;;5.68;;
24650;SDS011;12783;48.824;8.662;2022-08-19T15:00:55;7.22;;;5.90;;
24650;SDS011;12783;48.824;8.662;2022-08-19T15:03:23;6.68;;;5.68;;
24650;SDS011;12783;48.824;8.662;2022-08-19T15:05:50;8.25;;;5.40;;
24650;SDS011;12783;48.824;8.662;2022-08-19T15:08:17;7.65;;;4.78;;
24650;SDS011;12783;48.824;8.662;2022-08-19T15:10:44;5.53;;;5.03;;